Time;durP1;ratioP1;P1;durP2;ratioP2;P2;SDS_P1;SDS_P2;PMS_P1;PMS_P2;Temp;Humidity;BMP_temperature;BMP_pressure;BME280_temperature;BME280_humidity;BME280_pressure;Samples;Min_cycle;Max_cycle;Signal;HPM_P1;HPM_P2
2021/01/19 00:02:08;;;;;;;3.13;2.20;;;1.30;94.70;;;;;;5084963;28;20185;-75
2021/01/19 00:04:36;;;;;;;4.23;2.50;;;1.30;94.80;;;;;;5081723;28;20187;-75
2021/01/19 00:07:06;;;;;;;2.50;2.30;;;1.30;94.60;;;;;;5088714;28;20230;-74
2021/01/19 00:09:31;;;;;;;5.57;2.80;;;1.30;94.70;;;;;;5081688;28;20199;-75
2021/01/19 00:11:57;;;;;;;4.37;2.50;;;1.30;94.40;;;;;;5093949;28;20240;-75
2021/01/19 00:14:22;;;;;;;3.07;2.20;;;1.40;94.30;;;;;;5091391;28;20186;-75
2021/01/19 00:16:50;;;;;;;4.10;2.37;;;1.40;94.20;;;;;;5084976;28;20213;-75
2021/01/19 00:19:16;;;;;;;5.17;2.47;;;1.40;94.30;;;;;;5080241;28;20224;-75
2021/01/19 00:21:42;;;;;;;5.53;2.67;;;1.50;94.10;;;;;;5082987;28;20569;-75
2021/01/19 00:24:07;;;;;;;4.13;2.63;;;1.50;94.00;;;;;;5086710;28;20236;-76
2021/01/19 00:26:33;;;;;;;4.97;2.60;;;1.50;94.10;;;;;;5076677;28;20613;-76
2021/01/19 00:28:59;;;;;;;2.43;2.23;;;1.40;94.20;;;;;;5075685;28;20176;-75
2021/01/19 00:31:25;;;;;;;4.93;2.50;;;1.40;94.30;;;;;;5083611;28;20175;-75
2021/01/19 00:33:50;;;;;;;3.27;2.60;;;1.40;94.30;;;;;;5075307;28;20657;-75
2021/01/19 00:36:16;;;;;;;5.43;2.80;;;1.30;94.60;;;;;;5076226;28;20287;-75
2021/01/19 00:38:42;;;;;;;5.40;2.70;;;1.20;94.80;;;;;;5077932;28;20207;-76
2021/01/19 00:41:07;;;;;;;3.33;2.47;;;1.20;95.10;;;;;;5082009;28;20267;-76
2021/01/19 00:43:33;;;;;;;2.80;2.47;;;1.10;94.90;;;;;;5076232;28;20188;-75
2021/01/19 00:46:02;;;;;;;2.63;2.30;;;1.20;95.00;;;;;;5103068;28;20229;-74
2021/01/19 00:48:28;;;;;;;2.63;2.30;;;1.20;94.90;;;;;;5082960;28;20753;-75
2021/01/19 00:50:53;;;;;;;5.27;2.40;;;1.20;95.00;;;;;;5089618;28;20182;-75
2021/01/19 00:53:19;;;;;;;3.17;2.60;;;1.20;94.80;;;;;;5091876;28;20234;-75
2021/01/19 00:55:45;;;;;;;5.70;2.50;;;1.20;94.80;;;;;;5093433;28;20183;-75
2021/01/19 00:58:13;;;;;;;3.70;2.63;;;1.20;94.70;;;;;;5093861;28;20209;-75
2021/01/19 01:00:39;;;;;;;3.80;2.40;;;1.20;94.80;;;;;;5086167;28;20215;-74
2021/01/19 01:03:05;;;;;;;3.40;2.40;;;1.20;94.70;;;;;;5081018;28;20532;-75
2021/01/19 01:05:32;;;;;;;4.13;2.30;;;1.20;94.80;;;;;;5099232;28;20187;-76
2021/01/19 01:08:02;;;;;;;3.77;2.70;;;1.10;94.70;;;;;;5078660;28;20229;-75
2021/01/19 01:10:28;;;;;;;3.70;2.53;;;1.10;94.80;;;;;;5078731;28;20179;-75
2021/01/19 01:12:54;;;;;;;2.93;2.60;;;1.10;94.80;;;;;;5080743;28;20188;-76
2021/01/19 01:15:35;;;;;;;3.23;2.90;;;1.00;95.10;;;;;;5079312;28;20261;-75
2021/01/19 01:18:13;;;;;;;3.67;2.33;;;0.90;95.40;;;;;;5083385;28;20207;-75
2021/01/19 01:20:42;;;;;;;5.63;2.40;;;0.80;95.50;;;;;;5080526;28;20210;-75
2021/01/19 01:23:13;;;;;;;2.70;2.50;;;0.70;95.80;;;;;;5080936;28;20568;-75
2021/01/19 01:25:40;;;;;;;5.63;2.60;;;0.70;95.90;;;;;;5077237;28;20172;-76
2021/01/19 01:28:05;;;;;;;3.00;2.53;;;0.60;96.00;;;;;;5077050;28;20293;-75
2021/01/19 01:30:36;;;;;;;2.73;2.33;;;0.60;96.40;;;;;;5087870;28;20268;-75
2021/01/19 01:33:02;;;;;;;4.90;2.60;;;0.60;96.20;;;;;;5079417;28;20189;-75
2021/01/19 01:35:28;;;;;;;5.50;2.70;;;0.50;96.40;;;;;;5080544;28;20190;-75
2021/01/19 01:37:55;;;;;;;3.93;3.23;;;0.50;96.40;;;;;;5076556;28;20268;-75
2021/01/19 01:40:23;;;;;;;4.80;2.70;;;0.50;96.60;;;;;;5077965;28;20354;-76
2021/01/19 01:42:56;;;;;;;3.20;2.90;;;0.40;96.60;;;;;;5086040;28;20188;-75
2021/01/19 01:45:24;;;;;;;3.43;3.10;;;0.40;96.80;;;;;;5088406;28;20189;-75
2021/01/19 01:47:51;;;;;;;2.97;2.53;;;0.40;96.60;;;;;;5085555;28;20205;-75
2021/01/19 01:50:17;;;;;;;6.60;2.73;;;0.30;96.80;;;;;;5080791;28;20179;-75
2021/01/19 01:52:44;;;;;;;3.57;2.70;;;0.40;96.70;;;;;;5085792;28;20678;-75
2021/01/19 01:55:10;;;;;;;4.43;3.00;;;0.30;96.60;;;;;;5076768;28;20184;-75
2021/01/19 01:57:42;;;;;;;3.83;2.63;;;0.30;96.60;;;;;;5075893;28;20217;-75
2021/01/19 02:00:10;;;;;;;5.27;3.10;;;0.20;96.80;;;;;;5085116;28;20275;-75
2021/01/19 02:03:10;;;;;;;4.23;2.87;;;0.10;97.10;;;;;;5086787;28;20191;-75
2021/01/19 02:05:35;;;;;;;5.60;2.70;;;0.10;97.00;;;;;;5057027;28;20392;-75
2021/01/19 02:08:19;;;;;;;3.03;2.57;;;0.10;96.90;;;;;;5059201;28;20225;-76
2021/01/19 02:11:00;;;;;;;3.73;2.57;;;0.00;97.00;;;;;;5057787;28;20268;-75
2021/01/19 02:13:25;;;;;;;4.17;2.53;;;0.10;97.00;;;;;;5055657;28;20721;-75
2021/01/19 02:16:07;;;;;;;4.07;2.93;;;0.10;96.80;;;;;;5043882;28;20190;-75
2021/01/19 02:18:59;;;;;;;7.67;2.70;;;0.10;97.10;;;;;;5055743;28;20448;-75
2021/01/19 02:21:36;;;;;;;3.90;2.60;;;0.00;96.50;;;;;;5054156;28;20203;-76
2021/01/19 02:24:27;;;;;;;4.03;2.87;;;-0.20;96.60;;;;;;5051867;28;20218;-74
2021/01/19 02:27:07;;;;;;;4.53;2.57;;;-0.30;97.20;;;;;;5059497;28;20220;-75
2021/01/19 02:29:42;;;;;;;4.53;2.50;;;-0.50;97.70;;;;;;5063003;28;20192;-76
2021/01/19 02:32:48;;;;;;;3.07;2.53;;;-0.60;98.00;;;;;;5061720;28;20227;-75
2021/01/19 02:35:25;;;;;;;3.40;2.63;;;-0.60;98.40;;;;;;5057275;28;20263;-75
2021/01/19 02:38:19;;;;;;;4.40;2.67;;;-0.70;98.50;;;;;;5042353;28;20210;-75
2021/01/19 02:40:47;;;;;;;3.90;2.73;;;-0.80;98.70;;;;;;5060055;28;20206;-75
2021/01/19 02:43:20;;;;;;;3.57;3.00;;;-0.90;98.70;;;;;;5073868;28;20690;-76
2021/01/19 02:45:48;;;;;;;4.37;2.50;;;-1.00;98.70;;;;;;5078072;28;20199;-76
2021/01/19 02:48:16;;;;;;;3.47;2.63;;;-1.00;99.20;;;;;;5082629;28;20202;-75
2021/01/19 02:50:42;;;;;;;3.77;2.97;;;-0.70;99.40;;;;;;5080073;28;20240;-75
2021/01/19 02:53:08;;;;;;;4.53;2.60;;;-0.40;98.70;;;;;;5073799;28;20203;-75
2021/01/19 02:55:34;;;;;;;2.90;2.53;;;-0.20;98.00;;;;;;5082271;28;20186;-76
2021/01/19 02:58:07;;;;;;;4.37;2.90;;;-0.10;97.60;;;;;;5076297;28;20213;-75
2021/01/19 03:00:37;;;;;;;3.10;2.77;;;0.00;97.40;;;;;;5077278;28;20209;-76
2021/01/19 03:03:05;;;;;;;3.53;2.40;;;0.00;97.30;;;;;;5082158;28;20208;-75
2021/01/19 03:05:32;;;;;;;5.03;2.43;;;0.10;97.10;;;;;;5075410;28;20253;-75
2021/01/19 03:08:06;;;;;;;6.97;2.63;;;0.10;97.10;;;;;;5087786;28;20197;-74
2021/01/19 03:10:39;;;;;;;5.83;3.17;;;0.10;97.10;;;;;;5081773;28;20192;-76
2021/01/19 03:13:10;;;;;;;3.20;2.63;;;0.10;97.20;;;;;;5081645;28;20187;-75
2021/01/19 03:15:35;;;;;;;4.97;2.97;;;0.10;97.00;;;;;;5084132;28;20229;-76
2021/01/19 03:18:01;;;;;;;4.33;2.37;;;0.10;96.80;;;;;;5080728;28;20241;-75
2021/01/19 03:20:27;;;;;;;4.73;2.90;;;0.20;96.70;;;;;;5089408;28;20209;-75
2021/01/19 03:22:53;;;;;;;4.10;2.47;;;0.30;96.30;;;;;;5083121;28;20618;-75
2021/01/19 03:25:19;;;;;;;4.93;2.40;;;0.30;96.10;;;;;;5082410;28;20657;-77
2021/01/19 03:27:45;;;;;;;3.60;2.50;;;0.30;96.20;;;;;;5082152;28;20190;-75
2021/01/19 03:30:12;;;;;;;4.60;2.90;;;0.20;96.30;;;;;;5081876;28;20603;-75
2021/01/19 03:32:37;;;;;;;3.07;2.50;;;0.20;96.50;;;;;;5085169;28;20237;-75
2021/01/19 03:35:04;;;;;;;4.93;2.50;;;0.30;96.60;;;;;;5080404;28;20191;-75
2021/01/19 03:37:29;;;;;;;4.00;2.80;;;0.30;96.50;;;;;;5079554;28;20690;-75
2021/01/19 03:39:55;;;;;;;3.10;2.40;;;0.40;96.30;;;;;;5081900;28;20278;-75
2021/01/19 03:42:21;;;;;;;4.17;2.80;;;0.50;96.40;;;;;;5082714;28;20177;-76
2021/01/19 03:44:46;;;;;;;3.17;2.40;;;0.60;95.80;;;;;;5091329;28;20690;-76
2021/01/19 03:47:12;;;;;;;3.40;2.40;;;0.70;95.90;;;;;;5085642;28;20212;-76
2021/01/19 03:49:38;;;;;;;5.07;2.80;;;0.70;95.30;;;;;;5084189;28;20184;-76
2021/01/19 03:52:03;;;;;;;2.53;2.33;;;0.80;95.00;;;;;;5085688;28;20182;-76
2021/01/19 03:54:29;;;;;;;4.53;2.60;;;0.90;95.00;;;;;;5080925;28;20307;-76
2021/01/19 03:56:54;;;;;;;2.77;2.50;;;0.80;95.00;;;;;;5079777;28;20725;-76
2021/01/19 03:59:20;;;;;;;5.00;2.70;;;0.80;95.10;;;;;;5083110;28;21205;-76
2021/01/19 04:01:49;;;;;;;2.33;2.13;;;0.80;95.20;;;;;;5082576;28;20175;-76
2021/01/19 04:04:15;;;;;;;3.73;3.07;;;0.80;95.30;;;;;;5076523;28;20197;-76
2021/01/19 04:06:40;;;;;;;3.20;2.60;;;0.80;95.10;;;;;;5081279;28;20179;-75
2021/01/19 04:09:06;;;;;;;3.90;2.80;;;0.80;95.20;;;;;;5082904;28;20652;-76
2021/01/19 04:11:32;;;;;;;3.53;2.77;;;0.80;95.20;;;;;;5078999;28;20818;-75
2021/01/19 04:13:57;;;;;;;3.40;2.67;;;0.80;95.30;;;;;;5085820;28;20188;-75
2021/01/19 04:16:23;;;;;;;4.83;2.90;;;0.80;95.10;;;;;;5080146;28;20175;-74
2021/01/19 04:18:49;;;;;;;4.63;3.03;;;0.80;95.20;;;;;;5080694;28;20181;-75
2021/01/19 04:21:14;;;;;;;2.70;2.50;;;0.80;95.20;;;;;;5083028;28;20270;-75
2021/01/19 04:23:40;;;;;;;5.07;2.53;;;0.80;95.20;;;;;;5078170;28;20182;-75
2021/01/19 04:26:06;;;;;;;3.27;2.73;;;0.80;95.10;;;;;;5083442;28;20212;-75
2021/01/19 04:28:32;;;;;;;4.13;2.90;;;0.80;95.20;;;;;;5080268;28;20286;-76
2021/01/19 04:30:57;;;;;;;2.73;2.53;;;0.70;95.10;;;;;;5084498;28;20201;-76
2021/01/19 04:33:23;;;;;;;3.97;2.50;;;0.70;95.10;;;;;;5087983;28;20320;-76
2021/01/19 04:35:49;;;;;;;3.23;2.50;;;0.80;94.90;;;;;;5086862;28;20182;-76
2021/01/19 04:38:14;;;;;;;2.93;2.63;;;0.70;95.20;;;;;;5082121;28;20828;-78
2021/01/19 04:40:40;;;;;;;4.30;2.67;;;0.70;95.10;;;;;;5083399;28;20220;-80
2021/01/19 04:43:06;;;;;;;4.27;2.97;;;0.70;95.00;;;;;;5092770;28;20264;-77
2021/01/19 04:45:33;;;;;;;3.10;2.47;;;0.50;95.40;;;;;;5083254;28;20181;-77
2021/01/19 04:48:02;;;;;;;3.30;3.00;;;0.40;95.80;;;;;;5075497;28;20247;-76
2021/01/19 04:50:31;;;;;;;5.33;3.07;;;0.30;96.10;;;;;;5072873;28;20200;-77
2021/01/19 04:52:59;;;;;;;3.23;2.90;;;0.30;96.30;;;;;;5087278;28;20260;-77
2021/01/19 04:55:26;;;;;;;4.60;3.53;;;0.20;96.60;;;;;;5079263;28;20190;-77
2021/01/19 04:58:07;;;;;;;4.77;3.40;;;0.10;96.90;;;;;;5086271;28;20206;-77
2021/01/19 05:00:37;;;;;;;3.43;3.13;;;0.00;97.20;;;;;;5079419;28;20683;-76
2021/01/19 05:03:02;;;;;;;6.37;3.57;;;-0.10;97.20;;;;;;5084438;28;20256;-75
2021/01/19 05:05:59;;;;;;;4.10;3.03;;;-0.10;97.40;;;;;;5085864;28;20212;-77
2021/01/19 05:08:48;;;;;;;4.47;3.40;;;-0.20;97.70;;;;;;5080910;28;20219;-75
2021/01/19 05:11:25;;;;;;;4.97;3.43;;;-0.30;97.90;;;;;;5084532;28;20185;-75
2021/01/19 05:13:55;;;;;;;3.97;3.57;;;-0.30;98.20;;;;;;5082484;28;20177;-75
2021/01/19 05:16:22;;;;;;;5.03;4.03;;;-0.30;98.20;;;;;;5077076;28;20193;-75
2021/01/19 05:18:48;;;;;;;6.93;4.00;;;-0.30;98.10;;;;;;5079562;28;20196;-75
2021/01/19 05:21:15;;;;;;;7.53;4.40;;;-0.40;98.10;;;;;;5076616;28;20685;-76
2021/01/19 05:23:40;;;;;;;5.27;3.77;;;-0.40;98.20;;;;;;5079211;28;20184;-76
2021/01/19 05:26:08;;;;;;;4.87;4.37;;;-0.40;98.10;;;;;;5079882;28;20181;-76
2021/01/19 05:28:40;;;;;;;4.30;3.90;;;-0.50;98.00;;;;;;5085984;28;20187;-76
2021/01/19 05:31:15;;;;;;;6.07;3.57;;;-0.50;97.90;;;;;;5081897;28;20172;-74
2021/01/19 05:34:00;;;;;;;4.70;3.83;;;-0.50;97.90;;;;;;5099374;28;20175;-75
2021/01/19 05:36:36;;;;;;;5.37;3.90;;;-0.50;97.90;;;;;;5099867;28;20167;-75
2021/01/19 05:39:04;;;;;;;5.00;3.40;;;-0.50;97.80;;;;;;5086361;28;20194;-77
2021/01/19 05:41:38;;;;;;;6.87;3.80;;;-0.50;97.70;;;;;;5085459;28;20177;-76
2021/01/19 05:44:20;;;;;;;5.00;3.73;;;-0.50;97.60;;;;;;5081846;28;20203;-77
2021/01/19 05:46:59;;;;;;;4.70;3.00;;;-0.40;97.60;;;;;;5079327;28;20551;-77
2021/01/19 05:49:27;;;;;;;4.37;3.10;;;-0.40;97.60;;;;;;5075495;28;20307;-76
2021/01/19 05:51:59;;;;;;;4.63;3.93;;;-0.30;97.30;;;;;;5090213;28;20312;-76
2021/01/19 05:54:35;;;;;;;3.93;3.53;;;-0.30;97.50;;;;;;5101716;28;20223;-76
2021/01/19 05:57:03;;;;;;;7.27;4.00;;;-0.40;97.50;;;;;;5091269;28;20200;-77
2021/01/19 05:59:38;;;;;;;4.97;4.27;;;-0.40;97.70;;;;;;5073558;28;20187;-76
2021/01/19 06:02:06;;;;;;;6.27;3.83;;;-0.50;97.70;;;;;;5084490;28;20178;-76
2021/01/19 06:04:43;;;;;;;3.77;3.37;;;-0.50;97.90;;;;;;5081220;28;20176;-76
2021/01/19 06:07:10;;;;;;;6.60;4.20;;;-0.50;98.00;;;;;;5072591;28;20198;-77
2021/01/19 06:09:37;;;;;;;4.17;3.80;;;-0.60;98.00;;;;;;5076155;28;20186;-77
2021/01/19 06:12:03;;;;;;;6.53;4.07;;;-0.60;97.90;;;;;;5075330;28;20229;-77
2021/01/19 06:14:31;;;;;;;4.67;3.90;;;-0.60;98.10;;;;;;5075858;28;20191;-77
2021/01/19 06:17:03;;;;;;;6.20;4.33;;;-0.60;98.00;;;;;;5074421;28;20201;-77
2021/01/19 06:19:31;;;;;;;3.77;3.47;;;-0.60;98.00;;;;;;5078244;28;20199;-77
2021/01/19 06:21:57;;;;;;;4.60;3.93;;;-0.60;98.00;;;;;;5076420;28;20189;-77
2021/01/19 06:24:34;;;;;;;4.40;3.47;;;-0.50;97.80;;;;;;5078092;28;20707;-77
2021/01/19 06:27:00;;;;;;;5.47;4.07;;;-0.40;97.60;;;;;;5078798;28;20229;-76
2021/01/19 06:29:28;;;;;;;4.70;3.40;;;-0.40;97.50;;;;;;5085342;28;20843;-76
2021/01/19 06:31:57;;;;;;;5.23;3.70;;;-0.50;97.50;;;;;;5080945;28;20183;-75
2021/01/19 06:34:27;;;;;;;4.40;3.50;;;-0.50;97.50;;;;;;5082512;28;20754;-76
2021/01/19 06:36:52;;;;;;;6.83;4.03;;;-0.60;97.50;;;;;;5079760;28;20208;-76
2021/01/19 06:39:28;;;;;;;5.37;4.00;;;-0.70;97.60;;;;;;5079578;28;20205;-76
2021/01/19 06:42:02;;;;;;;6.70;3.63;;;-0.70;97.80;;;;;;5082643;28;20180;-76
2021/01/19 06:44:37;;;;;;;6.23;4.43;;;-0.80;97.90;;;;;;5084511;28;20557;-75
2021/01/19 06:47:05;;;;;;;4.47;3.73;;;-0.90;98.00;;;;;;5075378;28;20206;-75
2021/01/19 06:49:36;;;;;;;5.43;3.97;;;-0.90;98.10;;;;;;5081380;28;20190;-76
2021/01/19 06:52:21;;;;;;;7.33;4.77;;;-1.00;98.10;;;;;;5087564;28;20193;-76
2021/01/19 06:54:52;;;;;;;4.37;3.97;;;-1.00;98.40;;;;;;5080422;28;20688;-76
2021/01/19 06:57:32;;;;;;;4.70;4.13;;;-1.00;98.00;;;;;;5078240;28;20308;-76
2021/01/19 07:00:07;;;;;;;5.97;4.20;;;-1.00;98.10;;;;;;5076922;28;20733;-75
2021/01/19 07:02:38;;;;;;;9.43;4.17;;;-1.10;98.10;;;;;;5082848;28;20181;-75
2021/01/19 07:05:10;;;;;;;7.03;4.30;;;-1.10;98.50;;;;;;5073016;28;20180;-75
2021/01/19 07:07:42;;;;;;;6.47;4.07;;;-1.20;98.40;;;;;;5080451;28;20201;-75
2021/01/19 07:10:11;;;;;;;6.37;4.40;;;-1.20;98.40;;;;;;5080039;28;20183;-75
2021/01/19 07:13:03;;;;;;;5.63;3.77;;;-1.20;98.60;;;;;;5076628;28;20211;-74
2021/01/19 07:15:51;;;;;;;4.97;4.00;;;-1.20;98.50;;;;;;5076140;28;20313;-77
2021/01/19 07:18:53;;;;;;;7.10;4.13;;;-1.20;98.40;;;;;;5076405;28;20209;-76
2021/01/19 07:21:20;;;;;;;4.87;3.90;;;-1.30;98.30;;;;;;5077286;28;20315;-76
2021/01/19 07:23:46;;;;;;;5.93;4.43;;;-1.30;98.30;;;;;;5072789;28;20271;-77
2021/01/19 07:26:16;;;;;;;5.30;3.90;;;-1.30;98.40;;;;;;5076485;28;20674;-76
2021/01/19 07:28:42;;;;;;;4.80;3.57;;;-1.20;98.40;;;;;;5073022;28;20194;-77
2021/01/19 07:31:10;;;;;;;7.07;4.17;;;-1.20;98.40;;;;;;5089878;28;20194;-77
2021/01/19 07:33:37;;;;;;;6.70;4.83;;;-1.10;98.30;;;;;;5092869;28;20213;-76
2021/01/19 07:36:03;;;;;;;8.90;6.17;;;-1.00;98.40;;;;;;5100720;28;20179;-76
2021/01/19 07:38:29;;;;;;;7.60;5.00;;;-0.80;97.90;;;;;;5092328;28;20274;-76
2021/01/19 07:40:55;;;;;;;5.03;4.00;;;-0.70;97.60;;;;;;5079208;28;20232;-76
2021/01/19 07:43:21;;;;;;;7.13;3.97;;;-0.60;97.30;;;;;;5092129;28;20181;-76
2021/01/19 07:45:52;;;;;;;6.20;3.77;;;-0.40;96.80;;;;;;5090085;28;20239;-75
2021/01/19 07:48:33;;;;;;;4.33;3.40;;;-0.20;96.10;;;;;;5081582;28;20205;-74
2021/01/19 07:51:12;;;;;;;6.60;3.70;;;0.00;95.20;;;;;;5085371;28;20174;-75
2021/01/19 07:53:52;;;;;;;5.63;3.37;;;0.30;94.30;;;;;;5083321;28;20186;-75
2021/01/19 07:56:25;;;;;;;5.47;4.00;;;0.50;93.80;;;;;;5089844;28;20185;-77
2021/01/19 07:58:52;;;;;;;8.67;5.07;;;0.70;93.50;;;;;;5079017;28;20179;-76
2021/01/19 08:01:24;;;;;;;9.20;7.07;;;1.70;91.30;;;;;;5080820;28;20241;-77
2021/01/19 08:03:50;;;;;;;5.57;4.27;;;3.30;81.20;;;;;;5081281;28;20167;-76
2021/01/19 08:06:16;;;;;;;4.23;3.83;;;4.20;73.20;;;;;;5084545;28;20245;-77
2021/01/19 08:08:41;;;;;;;8.90;7.47;;;5.10;67.30;;;;;;5078008;28;20223;-75
2021/01/19 08:11:18;;;;;;;5.30;4.27;;;5.50;62.60;;;;;;5076392;28;20690;-77
2021/01/19 08:13:46;;;;;;;5.93;4.83;;;5.80;61.40;;;;;;5071506;28;20244;-75
2021/01/19 08:16:27;;;;;;;3.43;3.10;;;5.90;59.80;;;;;;5081717;28;20190;-77
2021/01/19 08:19:09;;;;;;;5.30;4.83;;;6.00;59.10;;;;;;5079303;28;20190;-75
2021/01/19 08:21:49;;;;;;;8.77;6.27;;;6.10;58.90;;;;;;5081549;28;20232;-76
2021/01/19 08:24:15;;;;;;;4.80;3.30;;;6.10;58.50;;;;;;5076628;28;20201;-76
2021/01/19 08:26:43;;;;;;;4.80;4.00;;;6.10;58.70;;;;;;5073741;28;20270;-76
2021/01/19 08:29:09;;;;;;;7.83;6.67;;;6.20;58.30;;;;;;5079045;28;20175;-77
2021/01/19 08:31:37;;;;;;;7.00;3.87;;;6.70;57.40;;;;;;5081214;28;20227;-77
2021/01/19 08:34:05;;;;;;;8.57;6.43;;;7.30;55.90;;;;;;5090566;28;20183;-77
2021/01/19 08:36:31;;;;;;;8.53;6.50;;;7.80;54.40;;;;;;5081554;28;20179;-76
2021/01/19 08:39:03;;;;;;;7.10;4.70;;;8.50;52.40;;;;;;5091988;28;20189;-77
2021/01/19 08:41:29;;;;;;;8.77;7.60;;;9.20;50.60;;;;;;5078662;28;20191;-77
2021/01/19 08:43:59;;;;;;;6.57;5.60;;;9.70;48.60;;;;;;5082219;28;20187;-76
2021/01/19 08:46:29;;;;;;;9.50;7.78;;;10.30;46.80;;;;;;5084400;28;20198;-76
2021/01/19 08:49:06;;;;;;;6.50;5.68;;;9.80;47.00;;;;;;5087188;28;20591;-75
2021/01/19 08:51:32;;;;;;;9.43;7.20;;;9.20;47.80;;;;;;5079472;28;20183;-76
2021/01/19 08:53:58;;;;;;;16.95;11.05;;;8.20;49.80;;;;;;5081676;28;20552;-75
2021/01/19 08:56:25;;;;;;;12.87;9.73;;;6.80;53.30;;;;;;5078777;28;20236;-75
2021/01/19 08:58:51;;;;;;;11.83;7.50;;;5.80;56.60;;;;;;5079744;28;20174;-76
2021/01/19 09:01:18;;;;;;;10.00;7.40;;;5.00;59.40;;;;;;5085650;28;20213;-75
2021/01/19 09:03:57;;;;;;;5.63;5.00;;;4.30;62.50;;;;;;5085280;28;20179;-75
2021/01/19 09:06:23;;;;;;;6.73;4.60;;;4.00;64.70;;;;;;5076622;28;20174;-75
2021/01/19 09:08:56;;;;;;;7.03;6.33;;;3.60;68.10;;;;;;5082714;28;20202;-75
2021/01/19 09:11:26;;;;;;;7.77;6.60;;;3.20;70.60;;;;;;5084562;28;20193;-76
2021/01/19 09:13:59;;;;;;;7.13;6.03;;;3.10;72.40;;;;;;5092176;28;20500;-75
2021/01/19 09:16:25;;;;;;;8.47;6.23;;;2.90;75.00;;;;;;5088160;28;20185;-75
2021/01/19 09:18:54;;;;;;;7.13;5.00;;;2.60;77.20;;;;;;5079437;28;20249;-75
2021/01/19 09:21:21;;;;;;;15.13;9.57;;;2.40;78.70;;;;;;5075753;28;20241;-75
2021/01/19 09:23:48;;;;;;;7.77;5.50;;;2.30;81.00;;;;;;5082748;28;20180;-75
2021/01/19 09:26:14;;;;;;;5.73;5.10;;;2.10;83.00;;;;;;5081206;28;20176;-76
2021/01/19 09:28:39;;;;;;;6.90;4.90;;;2.10;83.80;;;;;;5085905;28;20230;-76
2021/01/19 09:31:19;;;;;;;8.00;4.90;;;2.10;85.30;;;;;;5077323;28;20191;-76
2021/01/19 09:33:47;;;;;;;6.00;5.00;;;2.00;87.20;;;;;;5085608;28;20272;-77
2021/01/19 09:36:13;;;;;;;7.40;5.77;;;1.90;89.00;;;;;;5092340;28;20341;-75
2021/01/19 09:38:42;;;;;;;9.13;5.90;;;1.90;90.00;;;;;;5084177;28;20949;-77
2021/01/19 09:41:08;;;;;;;5.43;4.83;;;1.80;90.50;;;;;;5089005;28;20207;-77
2021/01/19 09:43:35;;;;;;;8.43;5.33;;;1.80;90.80;;;;;;5092804;28;20176;-77
2021/01/19 09:46:04;;;;;;;8.80;5.23;;;1.80;91.00;;;;;;5092023;28;20664;-77
2021/01/19 09:48:32;;;;;;;7.47;5.20;;;1.80;91.00;;;;;;5084844;28;20210;-77
2021/01/19 09:51:06;;;;;;;5.53;5.03;;;1.80;91.30;;;;;;5091677;28;20173;-76
2021/01/19 09:53:33;;;;;;;5.90;5.27;;;1.80;91.50;;;;;;5090478;28;20204;-77
2021/01/19 09:56:00;;;;;;;6.67;5.50;;;1.80;91.70;;;;;;5092899;28;20180;-77
2021/01/19 09:58:27;;;;;;;7.03;5.20;;;1.80;91.60;;;;;;5083144;28;20255;-78
2021/01/19 10:00:54;;;;;;;5.10;4.23;;;2.00;91.30;;;;;;5080977;28;20212;-77
2021/01/19 10:03:25;;;;;;;8.47;5.10;;;2.20;90.80;;;;;;5082596;28;20241;-77
2021/01/19 10:06:06;;;;;;;6.37;4.50;;;2.40;90.20;;;;;;5080572;28;20184;-77
2021/01/19 10:08:32;;;;;;;10.63;5.53;;;2.50;89.90;;;;;;5082307;28;20203;-76
2021/01/19 10:10:59;;;;;;;7.97;5.73;;;2.60;88.80;;;;;;5078931;28;20225;-74
2021/01/19 10:13:28;;;;;;;6.07;4.90;;;2.60;88.20;;;;;;5090048;28;20185;-77
2021/01/19 10:16:02;;;;;;;9.50;4.93;;;2.50;88.90;;;;;;5093882;28;20193;-74
2021/01/19 10:18:29;;;;;;;6.77;5.43;;;2.50;89.40;;;;;;5088943;28;20220;-74
2021/01/19 10:20:55;;;;;;;5.80;4.63;;;2.40;89.90;;;;;;5086001;28;20314;-74
2021/01/19 10:23:31;;;;;;;7.63;4.57;;;2.30;90.30;;;;;;5079072;28;20266;-75
2021/01/19 10:26:11;;;;;;;7.73;5.03;;;2.20;90.40;;;;;;5077609;28;20206;-75
2021/01/19 10:28:43;;;;;;;7.70;4.70;;;2.20;90.80;;;;;;5072396;28;20239;-76
2021/01/19 10:31:27;;;;;;;8.93;4.40;;;2.00;91.10;;;;;;5073429;28;20181;-75
2021/01/19 10:34:00;;;;;;;7.37;4.73;;;2.10;91.30;;;;;;5084209;28;20546;-76
2021/01/19 10:36:28;;;;;;;5.47;4.13;;;2.10;91.10;;;;;;5073410;28;20270;-75
2021/01/19 10:39:01;;;;;;;5.87;4.20;;;2.20;91.00;;;;;;5082317;28;20229;-75
2021/01/19 10:41:30;;;;;;;5.93;4.87;;;2.30;90.80;;;;;;5079403;28;20200;-74
2021/01/19 10:43:57;;;;;;;8.27;4.60;;;2.40;90.50;;;;;;5077092;28;20233;-74
2021/01/19 10:46:25;;;;;;;7.53;5.07;;;2.50;90.00;;;;;;5088356;28;20191;-75
2021/01/19 10:48:59;;;;;;;6.20;4.30;;;2.50;90.00;;;;;;5085185;28;20208;-75
2021/01/19 10:51:27;;;;;;;6.70;4.47;;;2.50;89.40;;;;;;5103590;28;20180;-75
2021/01/19 10:54:16;;;;;;;9.43;4.87;;;2.60;89.70;;;;;;5094952;28;20252;-74
2021/01/19 10:56:46;;;;;;;6.50;4.00;;;2.70;88.60;;;;;;5101718;28;20177;-75
2021/01/19 10:59:12;;;;;;;8.03;4.60;;;2.90;86.70;;;;;;5104848;28;20186;-76
2021/01/19 11:01:39;;;;;;;9.03;4.77;;;3.00;86.70;;;;;;5102084;28;20185;-74
2021/01/19 11:04:06;;;;;;;28.20;14.17;;;3.00;87.70;;;;;;5086939;28;20646;-74
2021/01/19 11:06:34;;;;;;;6.87;5.40;;;3.10;87.70;;;;;;5095745;28;20204;-74
2021/01/19 11:08:59;;;;;;;7.80;5.10;;;3.10;86.70;;;;;;5103253;28;20249;-76
2021/01/19 11:11:26;;;;;;;6.67;5.37;;;3.20;88.10;;;;;;5093181;28;20175;-75
2021/01/19 11:13:52;;;;;;;8.97;5.20;;;3.10;85.30;;;;;;5102254;28;20298;-75
2021/01/19 11:16:18;;;;;;;9.30;4.37;;;3.20;85.00;;;;;;5094809;28;20193;-75
2021/01/19 11:18:44;;;;;;;5.63;4.30;;;3.20;84.30;;;;;;5095244;28;20211;-75
2021/01/19 11:21:11;;;;;;;6.60;4.53;;;3.10;84.70;;;;;;5095629;28;20208;-74
2021/01/19 11:23:38;;;;;;;7.10;4.57;;;3.00;85.50;;;;;;5108666;28;20178;-75
2021/01/19 11:26:03;;;;;;;7.40;4.83;;;3.00;85.80;;;;;;5100909;28;20174;-76
2021/01/19 11:28:29;;;;;;;6.10;4.80;;;3.00;86.10;;;;;;5097925;28;20242;-75
2021/01/19 11:30:54;;;;;;;5.50;4.23;;;3.00;85.50;;;;;;5101315;28;20262;-74
2021/01/19 11:33:20;;;;;;;6.87;4.37;;;3.10;84.70;;;;;;5099858;28;20224;-75
2021/01/19 11:35:46;;;;;;;7.07;4.83;;;3.10;85.50;;;;;;5103616;28;20188;-79
2021/01/19 11:38:11;;;;;;;7.07;4.20;;;3.10;84.80;;;;;;5099109;28;20258;-78
2021/01/19 11:40:39;;;;;;;6.03;4.43;;;3.20;84.50;;;;;;5093631;28;20220;-78
2021/01/19 11:43:05;;;;;;;7.67;4.63;;;3.20;84.30;;;;;;5100236;28;20177;-77
2021/01/19 11:45:30;;;;;;;5.30;4.00;;;3.30;84.30;;;;;;5102937;28;20206;-77
2021/01/19 11:47:56;;;;;;;9.37;4.80;;;3.30;84.40;;;;;;5088609;28;20203;-77
2021/01/19 11:50:22;;;;;;;7.57;4.40;;;3.30;83.00;;;;;;5083529;28;20194;-78
2021/01/19 11:52:48;;;;;;;4.63;3.70;;;3.50;83.00;;;;;;5091474;28;20665;-77
2021/01/19 11:55:13;;;;;;;5.67;3.90;;;3.50;81.20;;;;;;5084320;28;20190;-77
2021/01/19 11:57:39;;;;;;;3.73;3.40;;;3.70;80.50;;;;;;5089518;28;20210;-78
2021/01/19 12:00:09;;;;;;;4.17;3.60;;;3.80;79.50;;;;;;5086394;28;20579;-78
2021/01/19 12:02:35;;;;;;;4.10;3.47;;;3.90;78.60;;;;;;5086138;28;20186;-78
2021/01/19 12:05:01;;;;;;;4.53;3.40;;;4.00;76.30;;;;;;5081155;28;20637;-78
2021/01/19 12:07:27;;;;;;;4.13;2.90;;;4.10;77.20;;;;;;5087627;28;20197;-78
2021/01/19 12:09:52;;;;;;;6.63;3.63;;;4.10;76.40;;;;;;5088250;28;20243;-78
2021/01/19 12:12:18;;;;;;;3.20;2.90;;;4.20;76.30;;;;;;5096967;28;20185;-78
2021/01/19 12:14:45;;;;;;;4.47;3.10;;;4.20;74.90;;;;;;5098185;28;20183;-78
2021/01/19 12:17:12;;;;;;;4.23;2.93;;;4.30;75.90;;;;;;5106940;28;20285;-78
2021/01/19 12:19:39;;;;;;;4.40;3.10;;;4.30;75.00;;;;;;5118767;28;20224;-78
2021/01/19 12:22:05;;;;;;;4.80;3.70;;;4.40;74.30;;;;;;5106854;28;20185;-78
2021/01/19 12:24:31;;;;;;;3.87;3.07;;;4.40;74.40;;;;;;5113916;28;20181;-76
2021/01/19 12:26:57;;;;;;;4.63;3.03;;;4.40;74.00;;;;;;5110898;28;20215;-79
2021/01/19 12:29:25;;;;;;;7.43;3.57;;;4.40;74.30;;;;;;5096814;28;20181;-77
2021/01/19 12:31:51;;;;;;;3.53;3.17;;;4.40;74.10;;;;;;5099322;28;20171;-78
2021/01/19 12:34:19;;;;;;;5.30;3.20;;;4.40;74.50;;;;;;5101003;28;20180;-77
2021/01/19 12:36:46;;;;;;;5.57;3.53;;;4.50;74.30;;;;;;5100654;28;20258;-75
2021/01/19 12:39:11;;;;;;;3.80;2.73;;;4.50;75.00;;;;;;5101846;28;20177;-75
2021/01/19 12:41:43;;;;;;;3.43;2.93;;;4.50;75.00;;;;;;5096122;28;20192;-74
2021/01/19 12:44:09;;;;;;;3.03;2.73;;;4.50;75.20;;;;;;5099700;28;20353;-73
2021/01/19 12:46:34;;;;;;;3.43;3.13;;;4.50;76.20;;;;;;5091674;28;20200;-74
2021/01/19 12:49:00;;;;;;;10.37;2.90;;;4.50;75.70;;;;;;5094854;28;20201;-73
2021/01/19 12:51:26;;;;;;;3.93;3.07;;;4.50;76.10;;;;;;5096420;28;20206;-75
2021/01/19 12:53:51;;;;;;;6.13;3.13;;;4.50;76.80;;;;;;5095238;28;20208;-74
2021/01/19 12:56:18;;;;;;;3.83;3.10;;;4.50;76.90;;;;;;5091295;28;20179;-74
2021/01/19 12:58:45;;;;;;;3.47;3.03;;;4.60;76.30;;;;;;5084707;28;20761;-75
2021/01/19 13:01:11;;;;;;;5.07;3.40;;;4.60;76.40;;;;;;5087695;28;20687;-74
2021/01/19 13:03:38;;;;;;;5.20;3.00;;;4.60;76.60;;;;;;5087231;28;20232;-74
2021/01/19 13:06:04;;;;;;;4.47;3.20;;;4.60;77.00;;;;;;5082028;28;20282;-74